Terminal Aerodrome Forecast
Issued by NWS

Home | Current Version | Previous Version | Text Only | Print | Product List | Glossary On
Versions: 1 2 3 4 5 6 7 8 9 10 11 12 13 14
460
FTUS42 KGSP 050319 AAA
TAFGMU
TAF AMD
KGMU 050319Z 0503/0524 03005KT 6SM -RA BR SCT004 OVC017
      TEMPO 0503/0505 3SM -RA BR BKN004 OVC012
     FM050500 03004KT 1 1/2SM BR OVC003
     FM051500 04004KT P6SM OVC020
     FM051700 05004KT P6SM OVC045 PROB30 0521/0524 4SM -RA OVC015=

USA.gov is the U.S. government's official web portal to all federal, state and local government web resources and services.